createdAt,value
2022-08-05T00:01:20.925Z,26.60
2022-08-05T00:04:15.100Z,4.50
2022-08-05T00:07:27.003Z,3.50
2022-08-05T00:10:11.389Z,3.30
2022-08-05T00:12:58.711Z,3.33
2022-08-05T00:15:56.383Z,3.22
2022-08-05T00:18:49.194Z,3.40
2022-08-05T00:21:37.606Z,3.58
2022-08-05T00:24:31.101Z,4.90
2022-08-05T00:27:18.421Z,7.90
2022-08-05T00:30:11.569Z,32.38
2022-08-05T00:33:00.982Z,25.30
2022-08-05T00:36:14.905Z,7.13
2022-08-05T00:38:55.412Z,4.05
2022-08-05T00:41:55.628Z,3.50
2022-08-05T00:44:43.190Z,3.20
2022-08-05T00:47:31.678Z,3.45
2022-08-05T00:50:41.879Z,3.45
2022-08-05T00:54:00.109Z,3.45
2022-08-05T00:56:36.376Z,3.67
2022-08-05T00:59:25.198Z,3.47
2022-08-05T01:02:12.717Z,3.55
2022-08-05T01:05:05.178Z,3.40
2022-08-05T01:08:40.218Z,3.60
2022-08-05T01:11:13.507Z,3.78
2022-08-05T01:14:09.721Z,3.47
2022-08-05T01:17:04.671Z,7.05
2022-08-05T01:20:01.915Z,4.68
2022-08-05T01:23:15.374Z,3.55
2022-08-05T01:26:34.982Z,5.90
2022-08-05T01:29:32.549Z,3.95
2022-08-05T01:32:24.376Z,3.92
2022-08-05T01:35:50.657Z,3.60
2022-08-05T01:38:29.874Z,3.83
2022-08-05T01:41:22.214Z,3.90
2022-08-05T01:44:11.530Z,4.00
2022-08-05T01:47:01.531Z,3.55
2022-08-05T01:50:01.277Z,4.25
2022-08-05T01:52:51.315Z,3.65
2022-08-05T01:55:41.318Z,3.70
2022-08-05T01:58:40.863Z,4.05
2022-08-05T02:01:40.106Z,3.92
2022-08-05T02:04:31.861Z,3.97
2022-08-05T02:07:21.873Z,4.22
2022-08-05T02:10:11.133Z,4.35
2022-08-05T02:13:15.776Z,4.28
2022-08-05T02:16:07.759Z,5.13
2022-08-05T02:19:09.659Z,4.78
2022-08-05T02:22:04.564Z,4.75
2022-08-05T02:24:57.193Z,4.30
2022-08-05T02:27:58.950Z,4.75
2022-08-05T02:30:54.673Z,4.60
2022-08-05T02:33:57.304Z,4.60
2022-08-05T02:36:50.139Z,4.70
2022-08-05T02:39:41.330Z,4.68
2022-08-05T02:42:36.364Z,4.57
2022-08-05T02:45:26.322Z,4.28
2022-08-05T02:48:16.839Z,4.82
2022-08-05T02:51:05.490Z,4.00
2022-08-05T02:53:54.814Z,4.45
2022-08-05T02:56:46.052Z,4.15
2022-08-05T02:59:50.407Z,3.63
2022-08-05T03:02:41.176Z,4.28
2022-08-05T03:06:55.219Z,4.10
2022-08-05T03:08:38.333Z,3.92
2022-08-05T03:11:55.141Z,3.85
2022-08-05T03:14:45.722Z,4.35
2022-08-05T03:17:33.468Z,4.00
2022-08-05T03:20:29.037Z,4.25
2022-08-05T03:23:16.743Z,4.13
2022-08-05T03:26:32.473Z,4.00
2022-08-05T03:29:12.422Z,3.88
2022-08-05T03:32:06.878Z,3.65
2022-08-05T03:34:55.787Z,3.97
2022-08-05T03:37:46.601Z,4.18
2022-08-05T03:40:34.122Z,3.88
2022-08-05T03:44:08.815Z,4.53
2022-08-05T03:46:32.589Z,3.95
2022-08-05T03:49:21.295Z,3.53
2022-08-05T03:52:48.882Z,3.92
2022-08-05T03:56:05.426Z,3.92
2022-08-05T03:58:46.791Z,3.50
2022-08-05T04:01:39.050Z,3.65
2022-08-05T04:04:29.701Z,4.13
2022-08-05T04:07:16.930Z,3.80
2022-08-05T04:10:12.750Z,4.47
2022-08-05T04:13:05.174Z,4.75
2022-08-05T04:15:52.869Z,4.15
2022-08-05T04:18:54.465Z,3.70
2022-08-05T04:22:09.390Z,3.90
2022-08-05T04:24:52.584Z,3.90
2022-08-05T04:27:43.595Z,3.92
2022-08-05T04:30:31.082Z,3.85
2022-08-05T04:33:20.582Z,3.90
2022-08-05T04:36:49.915Z,3.47
2022-08-05T04:39:35.327Z,4.00
2022-08-05T04:42:25.495Z,4.00
2022-08-05T04:45:14.216Z,3.90
2022-08-05T04:48:18.561Z,3.58
2022-08-05T04:51:15.044Z,15.57
2022-08-05T04:54:02.507Z,13.05
2022-08-05T04:56:50.809Z,3.67
2022-08-05T04:59:40.979Z,3.63
2022-08-05T05:02:36.230Z,3.90
2022-08-05T05:05:28.879Z,3.47
2022-08-05T05:08:26.577Z,3.45
2022-08-05T05:11:17.730Z,3.10
2022-08-05T05:14:06.461Z,3.35
2022-08-05T05:16:55.726Z,3.22
2022-08-05T05:19:47.539Z,3.72
2022-08-05T05:22:34.992Z,3.35
2022-08-05T05:25:40.264Z,3.50
2022-08-05T05:28:27.701Z,3.30
2022-08-05T05:31:18.563Z,3.72
2022-08-05T05:34:05.913Z,3.35
2022-08-05T05:36:53.822Z,3.60
2022-08-05T05:39:41.325Z,3.65
2022-08-05T05:42:30.489Z,3.38
2022-08-05T05:45:18.980Z,3.97
2022-08-05T05:48:09.030Z,3.30
2022-08-05T05:50:56.763Z,3.38
2022-08-05T05:53:46.104Z,3.92
2022-08-05T05:56:45.548Z,3.47
2022-08-05T05:59:40.111Z,3.40
2022-08-05T06:02:37.503Z,3.65
2022-08-05T06:05:26.713Z,3.50
2022-08-05T06:08:14.097Z,3.95
2022-08-05T06:11:19.103Z,2.80
2022-08-05T06:14:07.014Z,3.70
2022-08-05T06:16:54.363Z,3.22
2022-08-05T06:19:44.249Z,3.63
2022-08-05T06:22:45.054Z,3.60
2022-08-05T06:26:12.836Z,3.42
2022-08-05T06:28:41.044Z,3.20
2022-08-05T06:31:30.518Z,3.03
2022-08-05T06:34:19.972Z,2.65
2022-08-05T06:37:08.355Z,3.00
2022-08-05T06:39:57.214Z,2.65
2022-08-05T06:42:44.598Z,2.72
2022-08-05T06:45:44.548Z,2.40
2022-08-05T06:48:56.757Z,2.42
2022-08-05T06:51:46.486Z,2.42
2022-08-05T06:54:33.418Z,2.45
2022-08-05T06:58:02.651Z,2.45
2022-08-05T07:00:33.718Z,2.20
2022-08-05T07:03:22.291Z,2.30
2022-08-05T07:06:20.672Z,2.30
2022-08-05T07:09:08.164Z,2.75
2022-08-05T07:11:56.364Z,2.25
2022-08-05T07:15:06.774Z,2.42
2022-08-05T07:18:09.131Z,2.20
2022-08-05T07:20:58.391Z,1.90
2022-08-05T07:23:52.422Z,2.30
2022-08-05T07:26:39.639Z,2.10
2022-08-05T07:30:27.212Z,1.80
2022-08-05T07:32:38.239Z,2.33
2022-08-05T07:36:04.849Z,2.65
2022-08-05T07:38:34.951Z,2.15
2022-08-05T07:42:14.569Z,2.70
2022-08-05T07:44:38.000Z,2.60
2022-08-05T07:47:27.011Z,2.50
2022-08-05T07:50:32.554Z,2.20
2022-08-05T07:53:20.505Z,2.40
2022-08-05T07:57:02.421Z,2.45
2022-08-05T07:59:15.280Z,2.38
2022-08-05T08:02:03.031Z,2.45
2022-08-05T08:04:50.531Z,2.33
2022-08-05T08:08:00.167Z,2.20
2022-08-05T08:10:50.822Z,2.42
2022-08-05T08:13:42.691Z,2.75
2022-08-05T08:16:50.171Z,2.38
2022-08-05T08:20:21.750Z,2.60
2022-08-05T08:22:53.383Z,2.22
2022-08-05T08:25:59.863Z,1.90
2022-08-05T08:28:59.563Z,2.45
2022-08-05T08:31:49.899Z,1.70
2022-08-05T08:34:37.147Z,1.95
2022-08-05T08:37:27.982Z,2.20
2022-08-05T08:40:16.953Z,2.30
2022-08-05T08:43:21.034Z,1.77
2022-08-05T08:46:15.649Z,2.30
2022-08-05T08:50:05.747Z,2.33
2022-08-05T08:52:14.521Z,2.15
2022-08-05T08:55:03.389Z,2.05
2022-08-05T08:58:02.506Z,2.00
2022-08-05T09:00:51.518Z,2.00
2022-08-05T09:03:45.496Z,5.38
2022-08-05T09:06:32.957Z,2.78
2022-08-05T09:09:23.773Z,2.60
2022-08-05T09:12:20.652Z,2.00
2022-08-05T09:15:16.253Z,2.05
2022-08-05T09:18:03.492Z,2.10
2022-08-05T09:20:51.299Z,1.80
2022-08-05T09:23:43.824Z,2.05
2022-08-05T09:26:32.402Z,2.00
2022-08-05T09:29:20.830Z,1.90
2022-08-05T09:32:41.143Z,1.95
2022-08-05T09:35:27.780Z,1.80
2022-08-05T09:38:27.368Z,2.00
2022-08-05T09:41:16.771Z,1.70
2022-08-05T09:44:04.614Z,5.38
2022-08-05T09:47:10.400Z,4.25
2022-08-05T09:50:03.370Z,2.28
2022-08-05T09:52:58.781Z,1.90
2022-08-05T09:55:56.795Z,2.20
2022-08-05T09:58:58.344Z,1.90
2022-08-05T10:01:47.304Z,1.80
2022-08-05T10:04:38.572Z,2.30
2022-08-05T10:08:35.081Z,1.95
2022-08-05T10:10:54.527Z,1.90
2022-08-05T10:13:47.413Z,2.05
2022-08-05T10:16:38.018Z,2.25
2022-08-05T10:20:03.181Z,2.10
2022-08-05T10:22:50.878Z,2.10
2022-08-05T10:25:38.693Z,2.20
2022-08-05T10:28:29.452Z,1.80
2022-08-05T10:32:50.555Z,1.80
2022-08-05T10:34:30.031Z,2.00
2022-08-05T10:37:19.357Z,1.90
2022-08-05T10:40:19.854Z,1.80
2022-08-05T10:43:17.937Z,2.55
2022-08-05T10:46:12.273Z,2.45
2022-08-05T10:49:03.925Z,2.50
2022-08-05T10:52:00.168Z,2.50
2022-08-05T10:54:56.952Z,2.65
2022-08-05T10:57:46.382Z,2.78
2022-08-05T11:00:42.026Z,2.70
2022-08-05T11:03:29.815Z,2.70
2022-08-05T11:06:18.045Z,3.08
2022-08-05T11:09:39.051Z,2.63
2022-08-05T11:12:50.882Z,2.90
2022-08-05T11:15:59.378Z,3.28
2022-08-05T11:18:48.693Z,2.50
2022-08-05T11:21:49.001Z,2.60
2022-08-05T11:24:36.943Z,2.70
2022-08-05T11:27:50.148Z,2.67
2022-08-05T11:31:12.961Z,2.90
2022-08-05T11:34:51.637Z,1.92
2022-08-05T11:38:29.052Z,2.10
2022-08-05T11:41:54.540Z,2.00
2022-08-05T11:44:52.810Z,2.10
2022-08-05T11:47:49.283Z,2.10
2022-08-05T11:50:41.867Z,1.80
2022-08-05T11:53:30.114Z,2.03
2022-08-05T11:56:40.591Z,2.20
2022-08-05T11:59:33.572Z,2.17
2022-08-05T12:02:40.195Z,2.28
2022-08-05T12:05:32.291Z,2.63
2022-08-05T12:08:28.331Z,4.90
2022-08-05T12:11:22.365Z,1.98
2022-08-05T12:14:10.575Z,2.00
2022-08-05T12:16:57.966Z,1.85
2022-08-05T12:20:27.312Z,2.42
2022-08-05T12:23:09.297Z,2.30
2022-08-05T12:26:02.159Z,2.40
2022-08-05T12:28:49.863Z,2.40
2022-08-05T12:31:46.031Z,2.60
2022-08-05T12:34:38.748Z,2.80
2022-08-05T12:37:29.954Z,3.05
2022-08-05T12:40:26.290Z,4.15
2022-08-05T12:43:20.552Z,4.97
2022-08-05T12:46:08.022Z,5.38
2022-08-05T12:49:13.528Z,4.60
2022-08-05T12:52:12.356Z,3.70
2022-08-05T12:55:18.086Z,4.28
2022-08-05T12:58:50.508Z,3.72
2022-08-05T13:02:04.165Z,2.00
2022-08-05T13:04:54.471Z,3.28
2022-08-05T13:07:59.857Z,2.25
2022-08-05T13:10:50.341Z,1.58
2022-08-05T13:14:05.053Z,1.60
2022-08-05T13:16:56.627Z,1.98
2022-08-05T13:19:59.429Z,1.90
2022-08-05T13:22:49.185Z,2.00
2022-08-05T13:25:51.946Z,1.70
2022-08-05T13:28:44.342Z,1.90
2022-08-05T13:31:33.772Z,2.33
2022-08-05T13:34:40.895Z,2.17
2022-08-05T13:37:34.805Z,1.92
2022-08-05T13:40:36.634Z,1.80
2022-08-05T13:43:43.446Z,1.95
2022-08-05T13:46:50.655Z,2.05
2022-08-05T13:49:45.304Z,4.75
2022-08-05T13:52:35.425Z,3.42
2022-08-05T13:55:40.695Z,3.47
2022-08-05T13:58:30.732Z,2.20
2022-08-05T14:01:18.639Z,2.20
2022-08-05T14:04:26.526Z,2.17
2022-08-05T14:07:26.084Z,2.22
2022-08-05T14:10:28.553Z,2.30
2022-08-05T14:13:17.769Z,2.28
2022-08-05T14:16:11.724Z,2.17
2022-08-05T14:19:04.787Z,2.30
2022-08-05T14:22:09.635Z,2.22
2022-08-05T14:25:00.461Z,2.28
2022-08-05T14:27:48.465Z,2.28
2022-08-05T14:30:35.499Z,2.28
2022-08-05T14:33:24.055Z,2.03
2022-08-05T14:36:11.288Z,1.85
2022-08-05T14:38:58.401Z,1.95
2022-08-05T14:42:15.977Z,2.33
2022-08-05T14:44:59.531Z,2.40
2022-08-05T14:48:03.103Z,2.28
2022-08-05T14:50:53.187Z,2.38
2022-08-05T14:53:44.650Z,1.80
2022-08-05T14:56:32.130Z,2.22
2022-08-05T14:59:21.733Z,2.20
2022-08-05T15:02:14.717Z,2.50
2022-08-05T15:05:13.222Z,2.35
2022-08-05T15:08:10.705Z,2.35
2022-08-05T15:11:07.705Z,2.25
2022-08-05T15:13:54.935Z,2.10
2022-08-05T15:16:43.721Z,2.20
2022-08-05T15:19:34.187Z,2.67
2022-08-05T15:22:21.549Z,2.53
2022-08-05T15:25:14.723Z,2.22
2022-08-05T15:28:02.961Z,2.85
2022-08-05T15:30:51.543Z,3.00
2022-08-05T15:34:04.881Z,3.00
2022-08-05T15:36:50.024Z,2.97
2022-08-05T15:41:04.037Z,2.72
2022-08-05T15:42:55.300Z,2.75
2022-08-05T15:45:45.686Z,2.80
2022-08-05T15:48:33.377Z,2.90
2022-08-05T15:52:03.723Z,2.88
2022-08-05T15:54:37.475Z,5.68
2022-08-05T15:57:25.434Z,3.30
2022-08-05T16:00:25.953Z,4.40
2022-08-05T16:03:19.959Z,2.70
2022-08-05T16:06:09.044Z,3.17
2022-08-05T16:09:00.108Z,3.15
2022-08-05T16:11:52.447Z,2.63
2022-08-05T16:14:41.408Z,2.85
2022-08-05T16:17:29.013Z,2.60
2022-08-05T16:20:16.329Z,2.50
2022-08-05T16:23:08.511Z,2.53
2022-08-05T16:26:08.997Z,2.65
2022-08-05T16:28:56.714Z,2.78
2022-08-05T16:31:57.295Z,2.92
2022-08-05T16:34:45.070Z,2.90
2022-08-05T16:38:15.000Z,2.83
2022-08-05T16:40:51.858Z,2.80
2022-08-05T16:48:11.455Z,3.50
2022-08-05T16:51:12.869Z,2.95
2022-08-05T16:54:04.019Z,3.70
2022-08-05T16:56:56.101Z,3.47
2022-08-05T17:00:01.417Z,3.70
2022-08-05T17:03:42.631Z,3.67
2022-08-05T17:06:30.407Z,3.30
2022-08-05T17:09:17.738Z,3.33
2022-08-05T17:12:05.835Z,2.85
2022-08-05T17:14:54.754Z,3.22
2022-08-05T17:22:55.632Z,2.95
2022-08-05T17:25:43.367Z,2.60
2022-08-05T17:28:55.521Z,2.80
2022-08-05T17:31:59.013Z,2.17
2022-08-05T17:34:41.034Z,2.15
2022-08-05T17:37:41.635Z,2.10
2022-08-05T17:40:33.974Z,2.30
2022-08-05T17:43:47.265Z,1.70
2022-08-05T17:46:30.425Z,1.63
2022-08-05T17:49:51.547Z,1.80
2022-08-05T17:52:53.012Z,1.33
2022-08-05T17:55:44.017Z,1.10
2022-08-05T18:04:04.051Z,0.60
2022-08-05T18:07:42.332Z,0.93
2022-08-05T18:10:29.733Z,0.80
2022-08-05T18:13:21.806Z,0.80
2022-08-05T18:16:14.253Z,0.88
2022-08-05T18:19:07.590Z,0.75
2022-08-05T18:22:09.800Z,0.50
2022-08-05T18:25:23.657Z,0.70
2022-08-05T18:28:12.500Z,0.75
2022-08-05T18:31:06.095Z,0.77
2022-08-05T18:33:56.654Z,0.60
2022-08-05T18:36:44.931Z,0.90
2022-08-05T18:40:31.794Z,0.60
2022-08-05T18:42:40.721Z,0.70
2022-08-05T18:45:41.433Z,0.80
2022-08-05T18:48:33.170Z,0.90
2022-08-05T18:52:06.916Z,1.10
2022-08-05T18:54:46.959Z,0.70
2022-08-05T19:02:26.766Z,0.80
2022-08-05T19:06:13.218Z,0.70
2022-08-05T19:08:30.836Z,0.90
2022-08-05T19:11:28.037Z,0.70
2022-08-05T19:14:44.622Z,0.60
2022-08-05T19:17:25.937Z,0.82
2022-08-05T19:20:22.421Z,1.13
2022-08-05T19:24:03.291Z,0.80
2022-08-05T19:26:17.857Z,0.80
2022-08-05T19:29:07.156Z,0.90
2022-08-05T19:42:35.855Z,0.90
2022-08-05T19:45:23.374Z,0.98
2022-08-05T19:54:04.866Z,0.85
2022-08-05T19:56:38.398Z,1.05
2022-08-05T19:59:54.992Z,1.02
2022-08-05T20:02:35.952Z,0.95
2022-08-05T20:05:24.377Z,1.10
2022-08-05T20:08:12.344Z,0.98
2022-08-05T20:11:01.928Z,0.80
2022-08-05T20:13:58.335Z,1.10
2022-08-05T20:16:59.149Z,1.10
2022-08-05T20:19:48.702Z,0.80
2022-08-05T20:22:37.004Z,1.20
2022-08-05T20:25:33.825Z,1.02
2022-08-05T20:28:27.035Z,1.05
2022-08-05T20:31:14.371Z,1.13
2022-08-05T20:34:05.108Z,0.93
2022-08-05T20:42:11.605Z,1.13
2022-08-05T20:44:59.117Z,1.10
2022-08-05T20:47:48.066Z,1.20
2022-08-05T20:50:45.266Z,1.40
2022-08-05T20:53:36.450Z,1.20
2022-08-05T20:57:14.990Z,1.30
2022-08-05T21:00:40.172Z,1.40
2022-08-05T21:03:24.798Z,1.20
2022-08-05T21:06:27.553Z,1.42
2022-08-05T21:09:15.906Z,1.00
2022-08-05T21:12:08.867Z,1.45
2022-08-05T21:14:58.133Z,1.20
2022-08-05T21:17:46.231Z,1.25
2022-08-05T21:20:34.838Z,1.10
2022-08-05T21:23:23.818Z,1.30
2022-08-05T21:27:02.251Z,1.40
2022-08-05T21:29:50.995Z,1.30
2022-08-05T21:32:37.931Z,1.30
2022-08-05T21:35:30.085Z,1.30
2022-08-05T21:38:32.703Z,1.30
2022-08-05T21:50:38.391Z,1.33
2022-08-05T21:53:27.551Z,1.33
2022-08-05T21:56:17.261Z,1.35
2022-08-05T22:00:06.168Z,1.67
2022-08-05T22:08:22.168Z,1.33
2022-08-05T22:11:10.202Z,1.38
2022-08-05T22:14:05.696Z,1.50
2022-08-05T22:17:07.327Z,1.63
2022-08-05T22:20:02.075Z,1.30
2022-08-05T22:23:16.918Z,4.93
2022-08-05T22:26:21.617Z,4.32
2022-08-05T22:29:09.993Z,4.25
2022-08-05T22:31:59.585Z,5.57
2022-08-05T22:40:10.037Z,1.65
2022-08-05T22:43:03.902Z,1.50
2022-08-05T22:45:53.614Z,1.83
2022-08-05T22:48:42.100Z,1.50
2022-08-05T22:56:44.083Z,1.13
2022-08-05T22:59:43.767Z,1.30
2022-08-05T23:02:34.419Z,1.27
2022-08-05T23:05:27.583Z,1.13
2022-08-05T23:13:31.339Z,1.20
2022-08-05T23:16:44.156Z,1.23
2022-08-05T23:19:32.556Z,1.40
2022-08-05T23:22:27.871Z,1.15
2022-08-05T23:25:17.003Z,0.80
2022-08-05T23:28:22.080Z,0.70
2022-08-05T23:31:15.982Z,1.05
2022-08-05T23:34:06.781Z,1.00
2022-08-05T23:36:55.425Z,0.90
2022-08-05T23:39:53.837Z,0.90
2022-08-05T23:42:47.387Z,0.90
2022-08-05T23:45:40.881Z,0.93
2022-08-05T23:48:28.182Z,0.85
2022-08-05T23:51:15.942Z,0.80
2022-08-05T23:54:04.549Z,1.10
2022-08-05T23:56:51.854Z,1.00
